sensor_id;sensor_type;location;lat;lon;timestamp;P1;durP1;ratioP1;P2;durP2;ratioP2
15673;SDS011;7937;48.090;16.212;2023-04-15T00:02:53;0.50;;;0.30;;
15673;SDS011;7937;48.090;16.212;2023-04-15T00:05:59;0.37;;;0.20;;
15673;SDS011;7937;48.090;16.212;2023-04-15T00:09:02;3.13;;;0.30;;
15673;SDS011;7937;48.090;16.212;2023-04-15T00:12:05;0.53;;;0.20;;
15673;SDS011;7937;48.090;16.212;2023-04-15T00:15:08;3.13;;;0.37;;
15673;SDS011;7937;48.090;16.212;2023-04-15T00:18:13;0.20;;;0.20;;
15673;SDS011;7937;48.090;16.212;2023-04-15T00:21:15;1.50;;;0.20;;
15673;SDS011;7937;48.090;16.212;2023-04-15T00:24:17;3.20;;;0.20;;
15673;SDS011;7937;48.090;16.212;2023-04-15T00:27:20;0.57;;;0.30;;
15673;SDS011;7937;48.090;16.212;2023-04-15T00:30:22;1.60;;;0.30;;
15673;SDS011;7937;48.090;16.212;2023-04-15T00:33:27;0.93;;;0.30;;
15673;SDS011;7937;48.090;16.212;2023-04-15T00:36:32;0.30;;;0.30;;
15673;SDS011;7937;48.090;16.212;2023-04-15T00:39:35;1.10;;;0.20;;
15673;SDS011;7937;48.090;16.212;2023-04-15T00:42:38;1.37;;;0.33;;
15673;SDS011;7937;48.090;16.212;2023-04-15T00:45:43;0.80;;;0.20;;
15673;SDS011;7937;48.090;16.212;2023-04-15T00:48:45;0.50;;;0.30;;
15673;SDS011;7937;48.090;16.212;2023-04-15T00:51:48;0.20;;;0.20;;
15673;SDS011;7937;48.090;16.212;2023-04-15T00:54:50;0.67;;;0.30;;
15673;SDS011;7937;48.090;16.212;2023-04-15T00:57:53;0.20;;;0.20;;
15673;SDS011;7937;48.090;16.212;2023-04-15T01:00:57;0.60;;;0.20;;
15673;SDS011;7937;48.090;16.212;2023-04-15T01:04:00;0.67;;;0.33;;
15673;SDS011;7937;48.090;16.212;2023-04-15T01:07:03;0.23;;;0.20;;
15673;SDS011;7937;48.090;16.212;2023-04-15T01:10:05;0.27;;;0.20;;
15673;SDS011;7937;48.090;16.212;2023-04-15T01:13:09;0.60;;;0.60;;
15673;SDS011;7937;48.090;16.212;2023-04-15T01:16:14;1.53;;;0.50;;
15673;SDS011;7937;48.090;16.212;2023-04-15T01:19:17;0.40;;;0.30;;
15673;SDS011;7937;48.090;16.212;2023-04-15T01:22:22;0.40;;;0.30;;
15673;SDS011;7937;48.090;16.212;2023-04-15T01:25:30;0.40;;;0.40;;
15673;SDS011;7937;48.090;16.212;2023-04-15T01:28:34;0.40;;;0.30;;
15673;SDS011;7937;48.090;16.212;2023-04-15T01:31:38;0.20;;;0.20;;
15673;SDS011;7937;48.090;16.212;2023-04-15T01:34:41;0.30;;;0.20;;
15673;SDS011;7937;48.090;16.212;2023-04-15T01:37:43;0.37;;;0.20;;
15673;SDS011;7937;48.090;16.212;2023-04-15T01:40:46;0.77;;;0.30;;
15673;SDS011;7937;48.090;16.212;2023-04-15T01:43:48;0.30;;;0.30;;
15673;SDS011;7937;48.090;16.212;2023-04-15T01:46:50;0.30;;;0.30;;
15673;SDS011;7937;48.090;16.212;2023-04-15T01:49:53;0.20;;;0.20;;
15673;SDS011;7937;48.090;16.212;2023-04-15T01:52:56;0.40;;;0.23;;
15673;SDS011;7937;48.090;16.212;2023-04-15T01:56:00;0.17;;;0.17;;
15673;SDS011;7937;48.090;16.212;2023-04-15T01:59:02;0.20;;;0.20;;
15673;SDS011;7937;48.090;16.212;2023-04-15T02:02:05;0.40;;;0.30;;
15673;SDS011;7937;48.090;16.212;2023-04-15T02:05:07;0.30;;;0.30;;
15673;SDS011;7937;48.090;16.212;2023-04-15T02:08:10;0.40;;;0.40;;
15673;SDS011;7937;48.090;16.212;2023-04-15T02:11:13;1.27;;;0.40;;
15673;SDS011;7937;48.090;16.212;2023-04-15T02:14:18;1.10;;;0.60;;
15673;SDS011;7937;48.090;16.212;2023-04-15T02:17:20;1.07;;;0.40;;
15673;SDS011;7937;48.090;16.212;2023-04-15T02:20:24;0.30;;;0.30;;
15673;SDS011;7937;48.090;16.212;2023-04-15T02:23:26;0.60;;;0.40;;
15673;SDS011;7937;48.090;16.212;2023-04-15T02:26:28;2.93;;;0.40;;
15673;SDS011;7937;48.090;16.212;2023-04-15T02:29:33;0.50;;;0.40;;
15673;SDS011;7937;48.090;16.212;2023-04-15T02:32:35;1.00;;;0.50;;
15673;SDS011;7937;48.090;16.212;2023-04-15T02:35:39;0.30;;;0.30;;
15673;SDS011;7937;48.090;16.212;2023-04-15T02:38:45;0.63;;;0.37;;
15673;SDS011;7937;48.090;16.212;2023-04-15T02:41:49;0.30;;;0.30;;
15673;SDS011;7937;48.090;16.212;2023-04-15T02:44:55;0.40;;;0.40;;
15673;SDS011;7937;48.090;16.212;2023-04-15T02:48:04;0.40;;;0.40;;
15673;SDS011;7937;48.090;16.212;2023-04-15T02:51:14;1.33;;;0.73;;
15673;SDS011;7937;48.090;16.212;2023-04-15T02:54:21;0.30;;;0.30;;
15673;SDS011;7937;48.090;16.212;2023-04-15T02:57:24;0.20;;;0.20;;
15673;SDS011;7937;48.090;16.212;2023-04-15T03:00:28;0.43;;;0.43;;
15673;SDS011;7937;48.090;16.212;2023-04-15T03:03:31;0.57;;;0.30;;
15673;SDS011;7937;48.090;16.212;2023-04-15T03:06:34;0.53;;;0.40;;
15673;SDS011;7937;48.090;16.212;2023-04-15T03:09:47;0.40;;;0.40;;
15673;SDS011;7937;48.090;16.212;2023-04-15T03:12:49;0.30;;;0.30;;
15673;SDS011;7937;48.090;16.212;2023-04-15T03:15:54;1.90;;;0.40;;
15673;SDS011;7937;48.090;16.212;2023-04-15T03:18:59;0.33;;;0.33;;
15673;SDS011;7937;48.090;16.212;2023-04-15T03:22:03;0.47;;;0.47;;
15673;SDS011;7937;48.090;16.212;2023-04-15T03:25:05;0.87;;;0.57;;
15673;SDS011;7937;48.090;16.212;2023-04-15T03:28:08;0.30;;;0.30;;
15673;SDS011;7937;48.090;16.212;2023-04-15T03:31:11;1.93;;;0.40;;
15673;SDS011;7937;48.090;16.212;2023-04-15T03:34:14;0.60;;;0.47;;
15673;SDS011;7937;48.090;16.212;2023-04-15T03:37:16;0.50;;;0.40;;
15673;SDS011;7937;48.090;16.212;2023-04-15T03:43:43;0.40;;;0.40;;
15673;SDS011;7937;48.090;16.212;2023-04-15T03:46:46;0.57;;;0.40;;
15673;SDS011;7937;48.090;16.212;2023-04-15T03:49:49;0.30;;;0.30;;
15673;SDS011;7937;48.090;16.212;2023-04-15T03:52:51;0.50;;;0.43;;
15673;SDS011;7937;48.090;16.212;2023-04-15T03:55:53;0.80;;;0.43;;
15673;SDS011;7937;48.090;16.212;2023-04-15T03:58:57;1.47;;;0.30;;
15673;SDS011;7937;48.090;16.212;2023-04-15T04:02:02;0.63;;;0.50;;
15673;SDS011;7937;48.090;16.212;2023-04-15T04:05:08;0.47;;;0.40;;
15673;SDS011;7937;48.090;16.212;2023-04-15T04:08:10;0.40;;;0.40;;
15673;SDS011;7937;48.090;16.212;2023-04-15T04:11:17;0.50;;;0.50;;
15673;SDS011;7937;48.090;16.212;2023-04-15T04:14:19;0.50;;;0.40;;
15673;SDS011;7937;48.090;16.212;2023-04-15T04:17:22;0.60;;;0.40;;
15673;SDS011;7937;48.090;16.212;2023-04-15T04:20:24;0.90;;;0.40;;
15673;SDS011;7937;48.090;16.212;2023-04-15T04:23:27;1.13;;;0.83;;
15673;SDS011;7937;48.090;16.212;2023-04-15T04:26:29;0.50;;;0.40;;
15673;SDS011;7937;48.090;16.212;2023-04-15T04:29:35;0.63;;;0.60;;
15673;SDS011;7937;48.090;16.212;2023-04-15T04:32:37;0.70;;;0.53;;
15673;SDS011;7937;48.090;16.212;2023-04-15T04:35:39;0.70;;;0.50;;
15673;SDS011;7937;48.090;16.212;2023-04-15T04:38:44;1.00;;;0.60;;
15673;SDS011;7937;48.090;16.212;2023-04-15T04:41:47;0.37;;;0.30;;
15673;SDS011;7937;48.090;16.212;2023-04-15T04:44:49;0.50;;;0.40;;
15673;SDS011;7937;48.090;16.212;2023-04-15T04:47:53;0.40;;;0.40;;
15673;SDS011;7937;48.090;16.212;2023-04-15T04:50:56;1.40;;;0.77;;
15673;SDS011;7937;48.090;16.212;2023-04-15T04:53:58;1.37;;;0.63;;
15673;SDS011;7937;48.090;16.212;2023-04-15T04:57:09;0.37;;;0.37;;
15673;SDS011;7937;48.090;16.212;2023-04-15T05:00:17;0.70;;;0.50;;
15673;SDS011;7937;48.090;16.212;2023-04-15T05:03:20;0.77;;;0.50;;
15673;SDS011;7937;48.090;16.212;2023-04-15T05:06:25;0.40;;;0.40;;
15673;SDS011;7937;48.090;16.212;2023-04-15T05:09:28;0.40;;;0.40;;
15673;SDS011;7937;48.090;16.212;2023-04-15T05:12:33;0.30;;;0.30;;
15673;SDS011;7937;48.090;16.212;2023-04-15T05:15:36;0.40;;;0.40;;
15673;SDS011;7937;48.090;16.212;2023-04-15T05:18:40;0.30;;;0.30;;
15673;SDS011;7937;48.090;16.212;2023-04-15T05:21:43;0.80;;;0.50;;
15673;SDS011;7937;48.090;16.212;2023-04-15T05:24:45;1.70;;;0.70;;
15673;SDS011;7937;48.090;16.212;2023-04-15T05:27:47;0.30;;;0.30;;
15673;SDS011;7937;48.090;16.212;2023-04-15T05:30:52;0.30;;;0.30;;
15673;SDS011;7937;48.090;16.212;2023-04-15T05:33:57;0.67;;;0.50;;
15673;SDS011;7937;48.090;16.212;2023-04-15T05:36:59;0.40;;;0.30;;
15673;SDS011;7937;48.090;16.212;2023-04-15T05:40:02;1.03;;;0.50;;
15673;SDS011;7937;48.090;16.212;2023-04-15T05:43:05;0.50;;;0.50;;
15673;SDS011;7937;48.090;16.212;2023-04-15T05:46:07;0.47;;;0.47;;
15673;SDS011;7937;48.090;16.212;2023-04-15T05:49:10;1.33;;;0.67;;
15673;SDS011;7937;48.090;16.212;2023-04-15T05:52:15;0.50;;;0.50;;
15673;SDS011;7937;48.090;16.212;2023-04-15T05:55:20;1.43;;;0.43;;
15673;SDS011;7937;48.090;16.212;2023-04-15T05:58:22;0.60;;;0.60;;
15673;SDS011;7937;48.090;16.212;2023-04-15T06:01:25;1.70;;;0.40;;
15673;SDS011;7937;48.090;16.212;2023-04-15T06:04:27;1.50;;;0.60;;
15673;SDS011;7937;48.090;16.212;2023-04-15T06:07:30;1.90;;;0.70;;
15673;SDS011;7937;48.090;16.212;2023-04-15T06:10:33;0.60;;;0.60;;
15673;SDS011;7937;48.090;16.212;2023-04-15T06:13:37;1.43;;;1.00;;
15673;SDS011;7937;48.090;16.212;2023-04-15T06:16:39;0.80;;;0.80;;
15673;SDS011;7937;48.090;16.212;2023-04-15T06:19:42;1.20;;;0.60;;
15673;SDS011;7937;48.090;16.212;2023-04-15T06:22:44;2.00;;;0.73;;
15673;SDS011;7937;48.090;16.212;2023-04-15T06:25:46;2.50;;;0.80;;
15673;SDS011;7937;48.090;16.212;2023-04-15T06:28:48;0.60;;;0.60;;
15673;SDS011;7937;48.090;16.212;2023-04-15T06:31:51;0.40;;;0.40;;
15673;SDS011;7937;48.090;16.212;2023-04-15T06:34:54;0.80;;;0.33;;
15673;SDS011;7937;48.090;16.212;2023-04-15T06:37:56;0.63;;;0.50;;
15673;SDS011;7937;48.090;16.212;2023-04-15T06:40:58;0.57;;;0.40;;
15673;SDS011;7937;48.090;16.212;2023-04-15T06:44:04;0.30;;;0.30;;
15673;SDS011;7937;48.090;16.212;2023-04-15T06:47:09;0.77;;;0.30;;
15673;SDS011;7937;48.090;16.212;2023-04-15T06:50:14;0.77;;;0.50;;
15673;SDS011;7937;48.090;16.212;2023-04-15T06:53:19;0.50;;;0.40;;
15673;SDS011;7937;48.090;16.212;2023-04-15T06:56:22;0.87;;;0.60;;
15673;SDS011;7937;48.090;16.212;2023-04-15T06:59:26;0.40;;;0.40;;
15673;SDS011;7937;48.090;16.212;2023-04-15T07:02:31;0.53;;;0.30;;
15673;SDS011;7937;48.090;16.212;2023-04-15T07:05:38;1.33;;;0.40;;
15673;SDS011;7937;48.090;16.212;2023-04-15T07:08:47;0.90;;;0.60;;
15673;SDS011;7937;48.090;16.212;2023-04-15T07:11:54;0.63;;;0.60;;
15673;SDS011;7937;48.090;16.212;2023-04-15T07:15:02;0.97;;;0.50;;
15673;SDS011;7937;48.090;16.212;2023-04-15T07:18:13;1.13;;;0.80;;
15673;SDS011;7937;48.090;16.212;2023-04-15T07:21:19;0.60;;;0.60;;
15673;SDS011;7937;48.090;16.212;2023-04-15T07:24:23;1.30;;;0.60;;
15673;SDS011;7937;48.090;16.212;2023-04-15T07:27:33;0.80;;;0.70;;
15673;SDS011;7937;48.090;16.212;2023-04-15T07:30:55;0.50;;;0.50;;
15673;SDS011;7937;48.090;16.212;2023-04-15T07:33:59;0.70;;;0.70;;
15673;SDS011;7937;48.090;16.212;2023-04-15T07:37:09;0.90;;;0.77;;
15673;SDS011;7937;48.090;16.212;2023-04-15T07:40:24;0.70;;;0.70;;
15673;SDS011;7937;48.090;16.212;2023-04-15T07:43:49;1.47;;;1.03;;
15673;SDS011;7937;48.090;16.212;2023-04-15T07:47:22;1.27;;;1.00;;
15673;SDS011;7937;48.090;16.212;2023-04-15T07:50:49;0.67;;;0.67;;
15673;SDS011;7937;48.090;16.212;2023-04-15T07:54:05;1.10;;;1.00;;
15673;SDS011;7937;48.090;16.212;2023-04-15T07:57:29;1.17;;;1.00;;
15673;SDS011;7937;48.090;16.212;2023-04-15T08:00:59;2.80;;;1.30;;
15673;SDS011;7937;48.090;16.212;2023-04-15T08:04:19;1.20;;;0.90;;
15673;SDS011;7937;48.090;16.212;2023-04-15T08:07:50;2.37;;;1.27;;
15673;SDS011;7937;48.090;16.212;2023-04-15T08:11:23;2.33;;;1.30;;
15673;SDS011;7937;48.090;16.212;2023-04-15T08:14:38;1.60;;;1.50;;
15673;SDS011;7937;48.090;16.212;2023-04-15T08:17:56;1.63;;;1.40;;
15673;SDS011;7937;48.090;16.212;2023-04-15T08:20:58;1.63;;;1.33;;
15673;SDS011;7937;48.090;16.212;2023-04-15T08:24:00;1.60;;;1.50;;
15673;SDS011;7937;48.090;16.212;2023-04-15T08:27:03;1.70;;;1.60;;
15673;SDS011;7937;48.090;16.212;2023-04-15T08:30:06;1.70;;;1.60;;
15673;SDS011;7937;48.090;16.212;2023-04-15T08:33:09;1.53;;;1.27;;
15673;SDS011;7937;48.090;16.212;2023-04-15T08:36:11;2.50;;;1.50;;
15673;SDS011;7937;48.090;16.212;2023-04-15T08:39:14;1.47;;;1.30;;
15673;SDS011;7937;48.090;16.212;2023-04-15T08:42:16;1.93;;;1.73;;
15673;SDS011;7937;48.090;16.212;2023-04-15T08:45:22;1.67;;;1.57;;
15673;SDS011;7937;48.090;16.212;2023-04-15T08:48:24;1.87;;;1.60;;
15673;SDS011;7937;48.090;16.212;2023-04-15T08:51:30;3.90;;;1.60;;
15673;SDS011;7937;48.090;16.212;2023-04-15T08:54:34;1.63;;;1.53;;
15673;SDS011;7937;48.090;16.212;2023-04-15T08:57:37;2.00;;;1.80;;
15673;SDS011;7937;48.090;16.212;2023-04-15T09:00:40;1.80;;;1.40;;
15673;SDS011;7937;48.090;16.212;2023-04-15T09:03:42;1.63;;;1.33;;
15673;SDS011;7937;48.090;16.212;2023-04-15T09:06:45;1.90;;;1.70;;
15673;SDS011;7937;48.090;16.212;2023-04-15T09:09:47;1.87;;;1.53;;
15673;SDS011;7937;48.090;16.212;2023-04-15T09:12:50;3.33;;;1.77;;
15673;SDS011;7937;48.090;16.212;2023-04-15T09:15:52;1.83;;;1.70;;
15673;SDS011;7937;48.090;16.212;2023-04-15T09:18:54;1.80;;;1.70;;
15673;SDS011;7937;48.090;16.212;2023-04-15T09:21:57;2.20;;;1.70;;
15673;SDS011;7937;48.090;16.212;2023-04-15T09:25:00;1.60;;;1.47;;
15673;SDS011;7937;48.090;16.212;2023-04-15T09:28:02;1.90;;;1.40;;
15673;SDS011;7937;48.090;16.212;2023-04-15T09:31:04;1.93;;;1.40;;
15673;SDS011;7937;48.090;16.212;2023-04-15T09:34:07;1.60;;;1.50;;
15673;SDS011;7937;48.090;16.212;2023-04-15T09:37:09;1.30;;;1.20;;
15673;SDS011;7937;48.090;16.212;2023-04-15T09:40:11;1.90;;;1.27;;
15673;SDS011;7937;48.090;16.212;2023-04-15T09:43:14;1.60;;;1.50;;
15673;SDS011;7937;48.090;16.212;2023-04-15T09:46:18;1.00;;;1.00;;
15673;SDS011;7937;48.090;16.212;2023-04-15T09:49:20;2.03;;;1.30;;
15673;SDS011;7937;48.090;16.212;2023-04-15T09:52:22;1.47;;;0.90;;
15673;SDS011;7937;48.090;16.212;2023-04-15T09:55:24;1.10;;;1.00;;
15673;SDS011;7937;48.090;16.212;2023-04-15T09:58:28;0.80;;;0.80;;
15673;SDS011;7937;48.090;16.212;2023-04-15T10:01:31;0.97;;;0.97;;
15673;SDS011;7937;48.090;16.212;2023-04-15T10:04:34;3.73;;;1.27;;
15673;SDS011;7937;48.090;16.212;2023-04-15T10:07:40;1.37;;;0.90;;
15673;SDS011;7937;48.090;16.212;2023-04-15T10:10:43;1.47;;;1.20;;
15673;SDS011;7937;48.090;16.212;2023-04-15T10:13:48;2.60;;;1.03;;
15673;SDS011;7937;48.090;16.212;2023-04-15T10:16:51;1.17;;;0.80;;
15673;SDS011;7937;48.090;16.212;2023-04-15T10:19:57;1.43;;;1.13;;
15673;SDS011;7937;48.090;16.212;2023-04-15T10:23:01;1.17;;;0.93;;
15673;SDS011;7937;48.090;16.212;2023-04-15T10:26:04;0.50;;;0.50;;
15673;SDS011;7937;48.090;16.212;2023-04-15T10:29:07;1.50;;;0.60;;
15673;SDS011;7937;48.090;16.212;2023-04-15T10:32:11;0.73;;;0.60;;
15673;SDS011;7937;48.090;16.212;2023-04-15T10:35:14;1.13;;;0.80;;
15673;SDS011;7937;48.090;16.212;2023-04-15T10:38:32;1.63;;;0.97;;
15673;SDS011;7937;48.090;16.212;2023-04-15T10:41:34;0.60;;;0.60;;
15673;SDS011;7937;48.090;16.212;2023-04-15T10:44:37;1.57;;;0.60;;
15673;SDS011;7937;48.090;16.212;2023-04-15T10:47:43;2.20;;;0.77;;
15673;SDS011;7937;48.090;16.212;2023-04-15T10:50:55;0.60;;;0.40;;
15673;SDS011;7937;48.090;16.212;2023-04-15T10:53:59;0.30;;;0.30;;
15673;SDS011;7937;48.090;16.212;2023-04-15T11:03:13;0.30;;;0.30;;
15673;SDS011;7937;48.090;16.212;2023-04-15T11:06:16;0.80;;;0.30;;
15673;SDS011;7937;48.090;16.212;2023-04-15T11:09:30;1.27;;;0.40;;
15673;SDS011;7937;48.090;16.212;2023-04-15T11:12:39;0.37;;;0.37;;
15673;SDS011;7937;48.090;16.212;2023-04-15T11:15:46;0.27;;;0.27;;
15673;SDS011;7937;48.090;16.212;2023-04-15T11:18:52;0.27;;;0.27;;
15673;SDS011;7937;48.090;16.212;2023-04-15T11:21:56;0.50;;;0.40;;
15673;SDS011;7937;48.090;16.212;2023-04-15T11:24:58;0.43;;;0.37;;
15673;SDS011;7937;48.090;16.212;2023-04-15T11:28:00;0.30;;;0.30;;
15673;SDS011;7937;48.090;16.212;2023-04-15T11:31:10;0.57;;;0.43;;
15673;SDS011;7937;48.090;16.212;2023-04-15T11:34:19;0.43;;;0.40;;
15673;SDS011;7937;48.090;16.212;2023-04-15T11:37:27;0.30;;;0.30;;
15673;SDS011;7937;48.090;16.212;2023-04-15T11:40:30;0.40;;;0.40;;
15673;SDS011;7937;48.090;16.212;2023-04-15T11:43:36;0.30;;;0.30;;
15673;SDS011;7937;48.090;16.212;2023-04-15T11:46:39;0.53;;;0.40;;
15673;SDS011;7937;48.090;16.212;2023-04-15T11:49:42;0.97;;;0.50;;
15673;SDS011;7937;48.090;16.212;2023-04-15T11:52:56;0.70;;;0.50;;
15673;SDS011;7937;48.090;16.212;2023-04-15T11:56:02;0.70;;;0.50;;
15673;SDS011;7937;48.090;16.212;2023-04-15T11:59:04;0.40;;;0.40;;
15673;SDS011;7937;48.090;16.212;2023-04-15T12:02:12;0.40;;;0.40;;
15673;SDS011;7937;48.090;16.212;2023-04-15T12:05:15;0.33;;;0.30;;
15673;SDS011;7937;48.090;16.212;2023-04-15T12:08:17;0.30;;;0.30;;
15673;SDS011;7937;48.090;16.212;2023-04-15T12:11:20;0.10;;;0.10;;
15673;SDS011;7937;48.090;16.212;2023-04-15T12:14:31;0.47;;;0.43;;
15673;SDS011;7937;48.090;16.212;2023-04-15T12:17:34;0.60;;;0.43;;
15673;SDS011;7937;48.090;16.212;2023-04-15T12:20:52;0.70;;;0.70;;
15673;SDS011;7937;48.090;16.212;2023-04-15T12:23:56;0.40;;;0.40;;
15673;SDS011;7937;48.090;16.212;2023-04-15T12:27:02;0.40;;;0.20;;
15673;SDS011;7937;48.090;16.212;2023-04-15T12:30:05;0.37;;;0.20;;
15673;SDS011;7937;48.090;16.212;2023-04-15T12:33:08;0.10;;;0.10;;
15673;SDS011;7937;48.090;16.212;2023-04-15T12:36:11;0.10;;;0.10;;
15673;SDS011;7937;48.090;16.212;2023-04-15T12:39:14;0.30;;;0.27;;
15673;SDS011;7937;48.090;16.212;2023-04-15T12:42:16;0.10;;;0.10;;
15673;SDS011;7937;48.090;16.212;2023-04-15T12:45:19;0.53;;;0.20;;
15673;SDS011;7937;48.090;16.212;2023-04-15T12:48:22;0.10;;;0.10;;
15673;SDS011;7937;48.090;16.212;2023-04-15T12:51:24;0.20;;;0.20;;
15673;SDS011;7937;48.090;16.212;2023-04-15T12:54:27;0.10;;;0.10;;
15673;SDS011;7937;48.090;16.212;2023-04-15T12:57:30;0.20;;;0.20;;
15673;SDS011;7937;48.090;16.212;2023-04-15T13:03:54;0.10;;;0.10;;
15673;SDS011;7937;48.090;16.212;2023-04-15T13:06:57;0.17;;;0.17;;
15673;SDS011;7937;48.090;16.212;2023-04-15T13:09:59;0.10;;;0.10;;
15673;SDS011;7937;48.090;16.212;2023-04-15T13:13:01;0.30;;;0.20;;
15673;SDS011;7937;48.090;16.212;2023-04-15T13:16:04;0.43;;;0.40;;
15673;SDS011;7937;48.090;16.212;2023-04-15T13:19:06;0.20;;;0.20;;
15673;SDS011;7937;48.090;16.212;2023-04-15T13:22:09;0.20;;;0.20;;
15673;SDS011;7937;48.090;16.212;2023-04-15T13:25:12;0.20;;;0.10;;
15673;SDS011;7937;48.090;16.212;2023-04-15T13:28:14;0.10;;;0.10;;
15673;SDS011;7937;48.090;16.212;2023-04-15T13:31:16;0.10;;;0.10;;
15673;SDS011;7937;48.090;16.212;2023-04-15T13:34:18;0.17;;;0.17;;
15673;SDS011;7937;48.090;16.212;2023-04-15T13:37:24;0.20;;;0.20;;
15673;SDS011;7937;48.090;16.212;2023-04-15T13:40:29;0.20;;;0.20;;
15673;SDS011;7937;48.090;16.212;2023-04-15T13:43:31;0.20;;;0.20;;
15673;SDS011;7937;48.090;16.212;2023-04-15T13:46:34;0.10;;;0.10;;
15673;SDS011;7937;48.090;16.212;2023-04-15T13:49:38;0.33;;;0.20;;
15673;SDS011;7937;48.090;16.212;2023-04-15T13:52:40;0.93;;;0.20;;
15673;SDS011;7937;48.090;16.212;2023-04-15T13:55:42;0.17;;;0.17;;
15673;SDS011;7937;48.090;16.212;2023-04-15T13:58:44;0.10;;;0.10;;
15673;SDS011;7937;48.090;16.212;2023-04-15T14:01:46;0.20;;;0.20;;
15673;SDS011;7937;48.090;16.212;2023-04-15T14:04:49;0.30;;;0.30;;
15673;SDS011;7937;48.090;16.212;2023-04-15T14:07:51;0.10;;;0.10;;
15673;SDS011;7937;48.090;16.212;2023-04-15T14:10:54;0.10;;;0.10;;
15673;SDS011;7937;48.090;16.212;2023-04-15T14:13:56;0.33;;;0.10;;
15673;SDS011;7937;48.090;16.212;2023-04-15T14:16:58;3.17;;;1.00;;
15673;SDS011;7937;48.090;16.212;2023-04-15T14:20:00;0.13;;;0.13;;
15673;SDS011;7937;48.090;16.212;2023-04-15T14:23:02;0.17;;;0.17;;
15673;SDS011;7937;48.090;16.212;2023-04-15T14:26:04;0.50;;;0.10;;
15673;SDS011;7937;48.090;16.212;2023-04-15T14:29:07;0.10;;;0.10;;
15673;SDS011;7937;48.090;16.212;2023-04-15T14:32:09;0.10;;;0.10;;
15673;SDS011;7937;48.090;16.212;2023-04-15T14:35:13;0.10;;;0.10;;
15673;SDS011;7937;48.090;16.212;2023-04-15T14:38:15;0.20;;;0.20;;
15673;SDS011;7937;48.090;16.212;2023-04-15T14:41:17;0.10;;;0.10;;
15673;SDS011;7937;48.090;16.212;2023-04-15T14:44:19;0.27;;;0.23;;
15673;SDS011;7937;48.090;16.212;2023-04-15T14:47:22;0.20;;;0.20;;
15673;SDS011;7937;48.090;16.212;2023-04-15T14:50:25;0.30;;;0.20;;
15673;SDS011;7937;48.090;16.212;2023-04-15T14:53:27;0.10;;;0.10;;
15673;SDS011;7937;48.090;16.212;2023-04-15T14:56:29;0.20;;;0.20;;
15673;SDS011;7937;48.090;16.212;2023-04-15T14:59:32;0.10;;;0.10;;
15673;SDS011;7937;48.090;16.212;2023-04-15T15:02:34;0.20;;;0.10;;
15673;SDS011;7937;48.090;16.212;2023-04-15T15:05:41;0.20;;;0.20;;
15673;SDS011;7937;48.090;16.212;2023-04-15T15:08:45;0.20;;;0.20;;
15673;SDS011;7937;48.090;16.212;2023-04-15T15:11:48;0.30;;;0.20;;
15673;SDS011;7937;48.090;16.212;2023-04-15T15:14:50;0.30;;;0.30;;
15673;SDS011;7937;48.090;16.212;2023-04-15T15:17:53;1.87;;;0.20;;
15673;SDS011;7937;48.090;16.212;2023-04-15T15:20:55;0.10;;;0.10;;
15673;SDS011;7937;48.090;16.212;2023-04-15T15:23:57;0.17;;;0.17;;
15673;SDS011;7937;48.090;16.212;2023-04-15T15:26:59;0.17;;;0.17;;
15673;SDS011;7937;48.090;16.212;2023-04-15T15:30:02;0.20;;;0.20;;
15673;SDS011;7937;48.090;16.212;2023-04-15T15:33:05;0.33;;;0.20;;
15673;SDS011;7937;48.090;16.212;2023-04-15T15:36:07;0.37;;;0.37;;
15673;SDS011;7937;48.090;16.212;2023-04-15T15:39:11;0.13;;;0.13;;
15673;SDS011;7937;48.090;16.212;2023-04-15T15:42:13;0.20;;;0.10;;
15673;SDS011;7937;48.090;16.212;2023-04-15T15:45:15;0.20;;;0.20;;
15673;SDS011;7937;48.090;16.212;2023-04-15T15:48:18;0.10;;;0.10;;
15673;SDS011;7937;48.090;16.212;2023-04-15T15:51:20;0.10;;;0.10;;
15673;SDS011;7937;48.090;16.212;2023-04-15T15:54:23;2.30;;;0.17;;
15673;SDS011;7937;48.090;16.212;2023-04-15T15:57:26;0.73;;;0.20;;
15673;SDS011;7937;48.090;16.212;2023-04-15T16:00:30;0.20;;;0.20;;
15673;SDS011;7937;48.090;16.212;2023-04-15T16:03:33;0.10;;;0.10;;
15673;SDS011;7937;48.090;16.212;2023-04-15T16:06:35;0.40;;;0.20;;
15673;SDS011;7937;48.090;16.212;2023-04-15T16:09:37;0.10;;;0.10;;
15673;SDS011;7937;48.090;16.212;2023-04-15T16:12:41;0.10;;;0.10;;
15673;SDS011;7937;48.090;16.212;2023-04-15T16:15:44;0.27;;;0.10;;
15673;SDS011;7937;48.090;16.212;2023-04-15T16:18:46;0.20;;;0.20;;
15673;SDS011;7937;48.090;16.212;2023-04-15T16:21:48;0.10;;;0.10;;
15673;SDS011;7937;48.090;16.212;2023-04-15T16:24:51;1.27;;;0.20;;
15673;SDS011;7937;48.090;16.212;2023-04-15T16:27:54;0.20;;;0.20;;
15673;SDS011;7937;48.090;16.212;2023-04-15T16:31:12;0.10;;;0.10;;
15673;SDS011;7937;48.090;16.212;2023-04-15T16:34:14;0.20;;;0.20;;
15673;SDS011;7937;48.090;16.212;2023-04-15T16:37:16;0.10;;;0.10;;
15673;SDS011;7937;48.090;16.212;2023-04-15T16:40:18;0.20;;;0.20;;
15673;SDS011;7937;48.090;16.212;2023-04-15T16:43:20;0.30;;;0.30;;
15673;SDS011;7937;48.090;16.212;2023-04-15T16:46:22;0.77;;;0.30;;
15673;SDS011;7937;48.090;16.212;2023-04-15T16:49:25;0.50;;;0.20;;
15673;SDS011;7937;48.090;16.212;2023-04-15T16:52:27;0.30;;;0.30;;
15673;SDS011;7937;48.090;16.212;2023-04-15T16:55:29;0.10;;;0.10;;
15673;SDS011;7937;48.090;16.212;2023-04-15T16:58:32;0.57;;;0.20;;
15673;SDS011;7937;48.090;16.212;2023-04-15T17:01:34;0.27;;;0.27;;
15673;SDS011;7937;48.090;16.212;2023-04-15T17:04:37;0.60;;;0.17;;
15673;SDS011;7937;48.090;16.212;2023-04-15T17:07:41;0.13;;;0.13;;
15673;SDS011;7937;48.090;16.212;2023-04-15T17:10:43;0.20;;;0.20;;
15673;SDS011;7937;48.090;16.212;2023-04-15T17:13:46;0.20;;;0.20;;
15673;SDS011;7937;48.090;16.212;2023-04-15T17:16:48;0.27;;;0.27;;
15673;SDS011;7937;48.090;16.212;2023-04-15T17:19:50;0.20;;;0.20;;
15673;SDS011;7937;48.090;16.212;2023-04-15T17:22:53;0.20;;;0.20;;
15673;SDS011;7937;48.090;16.212;2023-04-15T17:25:55;1.30;;;0.20;;
15673;SDS011;7937;48.090;16.212;2023-04-15T17:28:57;0.27;;;0.27;;
15673;SDS011;7937;48.090;16.212;2023-04-15T17:32:01;0.47;;;0.30;;
15673;SDS011;7937;48.090;16.212;2023-04-15T17:35:05;0.37;;;0.30;;
15673;SDS011;7937;48.090;16.212;2023-04-15T17:38:07;0.20;;;0.20;;
15673;SDS011;7937;48.090;16.212;2023-04-15T17:41:10;0.30;;;0.20;;
15673;SDS011;7937;48.090;16.212;2023-04-15T17:44:13;0.50;;;0.17;;
15673;SDS011;7937;48.090;16.212;2023-04-15T17:47:15;0.10;;;0.10;;
15673;SDS011;7937;48.090;16.212;2023-04-15T17:50:18;0.30;;;0.10;;
15673;SDS011;7937;48.090;16.212;2023-04-15T17:53:21;0.10;;;0.10;;
15673;SDS011;7937;48.090;16.212;2023-04-15T17:56:23;0.30;;;0.20;;
15673;SDS011;7937;48.090;16.212;2023-04-15T17:59:29;0.30;;;0.20;;
15673;SDS011;7937;48.090;16.212;2023-04-15T18:04:11;0.20;;;0.20;;
15673;SDS011;7937;48.090;16.212;2023-04-15T18:07:15;0.20;;;0.20;;
15673;SDS011;7937;48.090;16.212;2023-04-15T18:10:18;0.10;;;0.10;;
15673;SDS011;7937;48.090;16.212;2023-04-15T18:13:21;0.30;;;0.20;;
15673;SDS011;7937;48.090;16.212;2023-04-15T18:16:24;0.20;;;0.20;;
15673;SDS011;7937;48.090;16.212;2023-04-15T18:19:28;0.20;;;0.20;;
15673;SDS011;7937;48.090;16.212;2023-04-15T18:22:33;0.10;;;0.10;;
15673;SDS011;7937;48.090;16.212;2023-04-15T18:25:37;0.10;;;0.10;;
15673;SDS011;7937;48.090;16.212;2023-04-15T18:28:39;0.20;;;0.20;;
15673;SDS011;7937;48.090;16.212;2023-04-15T18:31:43;0.20;;;0.20;;
15673;SDS011;7937;48.090;16.212;2023-04-15T18:34:45;0.20;;;0.20;;
15673;SDS011;7937;48.090;16.212;2023-04-15T18:37:51;0.20;;;0.20;;
15673;SDS011;7937;48.090;16.212;2023-04-15T18:40:54;1.77;;;0.80;;
15673;SDS011;7937;48.090;16.212;2023-04-15T18:43:57;1.40;;;0.70;;
15673;SDS011;7937;48.090;16.212;2023-04-15T18:47:00;0.50;;;0.40;;